Anderson, South Carolina
Current Conditions -  °F | °C
As of 6:56 AM on Friday 28 Nov 2014 (Local Time) from KAND Reporting Station
Clear Clear  
Wind Chill: 26°   Ceiling: Unl
Heat Index: 26°   Visibility: 10mi
Dew Point: 22°   Wind: 0mph
Humidity: 84%   Direction: NA
Pressure: 30.36"   Gusts: NA
Location:  34.5°N, 82.65°W
Report Text: KAND 281156Z AUTO 00000KT 10SM CLR M03/M06 A3036 RMK AO2 SLP285 T10331056 10011 21039 53006
Loading
Personal Weather Stations






























Interactive Weather Map New forecast layout! Learn more

10-Day Weather Forecast

Advertisements
Track Severe Weather on mobile